Time;durP1;ratioP1;P1;durP2;ratioP2;P2;SDS_P1;SDS_P2;PMS_P1;PMS_P2;Temp;Humidity;BMP_temperature;BMP_pressure;BME280_temperature;BME280_humidity;BME280_pressure;Samples;Min_cycle;Max_cycle;Signal;HPM_P1;HPM_P2
2022/01/17 00:02:22;;;;;;;;;29.75;29.00;;;;;6.29;80.69;102821.81;5037030;28;45317;-52
2022/01/17 00:04:48;;;;;;;;;37.50;30.00;;;;;6.35;80.90;102834.09;5019509;28;45275;-51
2022/01/17 00:07:14;;;;;;;;;42.00;38.20;;;;;6.15;80.77;102801.22;5019173;28;46005;-51
2022/01/17 00:09:39;;;;;;;;;43.00;29.50;;;;;6.32;80.55;102827.03;5036474;28;45349;-52
2022/01/17 00:12:05;;;;;;;;;37.50;33.50;;;;;6.32;80.35;102827.03;5019330;28;45473;-50
2022/01/17 00:14:38;;;;;;;;;38.25;35.25;;;;;6.34;79.96;102838.66;5019471;28;45398;-50
2022/01/17 00:17:10;;;;;;;;;39.20;35.40;;;;;6.19;81.08;102815.44;5036487;28;45723;-49
2022/01/17 00:19:41;;;;;;;;;37.00;31.80;;;;;6.33;80.85;102833.34;5036587;28;45449;-49
2022/01/17 00:22:06;;;;;;;;;35.80;30.80;;;;;6.34;79.89;102829.59;5036916;28;45373;-50
2022/01/17 00:24:32;;;;;;;;;33.00;29.25;;;;;6.34;80.28;102832.34;5019052;28;45632;-52
2022/01/17 00:26:57;;;;;;;;;36.25;33.25;;;;;6.42;79.95;102831.69;5036153;28;45408;-51
2022/01/17 00:29:23;;;;;;;;;40.00;32.25;;;;;6.43;80.61;102830.69;5018337;28;45399;-53
2022/01/17 00:31:49;;;;;;;;;33.00;30.50;;;;;6.37;80.42;102811.09;5036410;28;45408;-53
2022/01/17 00:34:14;;;;;;;;;45.25;29.75;;;;;6.45;80.08;102829.56;5002026;28;45709;-52
2022/01/17 00:36:40;;;;;;;;;34.50;29.75;;;;;6.29;80.38;102802.72;5018302;28;47381;-53
2022/01/17 00:39:05;;;;;;;;;39.75;34.00;;;;;6.44;80.59;102824.22;5018217;28;45374;-54
2022/01/17 00:41:31;;;;;;;;;42.25;33.75;;;;;6.46;80.10;102828.53;5027988;28;45413;-51
2022/01/17 00:43:56;;;;;;;;;40.00;33.25;;;;;6.46;80.27;102822.25;5034969;28;45384;-53
2022/01/17 00:46:22;;;;;;;;;33.50;27.00;;;;;6.40;80.42;102820.03;5017948;28;46526;-49
2022/01/17 00:48:47;;;;;;;;;35.25;30.50;;;;;6.45;80.37;102817.78;5001492;28;45393;-50
2022/01/17 00:51:13;;;;;;;;;42.00;32.00;;;;;6.46;80.57;102820.38;5018370;28;45308;-52
2022/01/17 00:53:40;;;;;;;;;34.75;28.75;;;;;6.45;80.14;102821.38;5018540;28;45528;-53
2022/01/17 00:56:06;;;;;;;;;34.20;28.80;;;;;6.42;80.84;102818.03;5001545;28;47610;-49
2022/01/17 00:58:31;;;;;;;;;34.50;28.25;;;;;6.39;80.44;102823.78;5018138;28;45351;-50
2022/01/17 01:00:57;;;;;;;;;34.75;30.50;;;;;6.26;80.44;102796.69;5035988;28;45326;-50
2022/01/17 01:03:22;;;;;;;;;42.00;31.00;;;;;6.24;80.55;102792.22;5036038;28;45349;-48
2022/01/17 01:05:48;;;;;;;;;48.50;36.25;;;;;6.47;80.86;102830.28;5035867;28;46465;-54
2022/01/17 01:08:13;;;;;;;;;40.00;28.25;;;;;6.44;80.28;102830.56;5017506;28;45460;-49
2022/01/17 01:10:39;;;;;;;;;41.25;27.50;;;;;6.48;80.17;102820.25;5036120;28;45397;-51
2022/01/17 01:13:04;;;;;;;;;35.25;28.75;;;;;6.48;80.84;102820.25;5035574;28;45398;-49
2022/01/17 01:15:45;;;;;;;;;36.50;31.00;;;;;6.46;80.98;102817.63;5017990;28;45560;-54
2022/01/17 01:18:36;;;;;;;;;42.00;36.40;;;;;6.50;80.00;102824.56;4988584;28;45379;-52
2022/01/17 01:29:15;;;;;;;;;41.20;37.20;;;;;6.50;80.17;102824.56;5034685;28;45471;-51
2022/01/17 01:31:49;;;;;;;;;41.50;32.00;;;;;6.50;80.61;102826.41;5018154;28;45366;-48
2022/01/17 01:34:15;;;;;;;;;30.40;29.00;;;;;6.52;80.96;102824.44;5035695;28;45557;-48
2022/01/17 01:36:41;;;;;;;;;46.60;35.60;;;;;6.51;80.10;102814.50;5035636;28;46194;-48
2022/01/17 01:39:07;;;;;;;;;34.50;29.25;;;;;6.51;81.02;102823.56;5017731;28;45428;-49
2022/01/17 01:41:42;;;;;;;;;32.25;29.00;;;;;6.51;80.21;102820.84;5035788;28;45314;-51
2022/01/17 01:44:21;;;;;;;;;32.80;30.20;;;;;6.53;80.69;102836.19;5008825;28;45623;-52
2022/01/17 01:46:47;;;;;;;;;38.80;34.80;;;;;6.50;80.01;102824.56;5017542;28;45902;-50
2022/01/17 01:49:13;;;;;;;;;32.40;27.40;;;;;6.51;80.61;102826.28;5001011;28;45523;-48
2022/01/17 01:51:38;;;;;;;;;33.25;29.75;;;;;6.46;80.28;102817.63;5001665;28;45449;-49
2022/01/17 01:54:04;;;;;;;;;37.75;31.00;;;;;6.48;80.78;102828.41;5017771;28;45563;-48
2022/01/17 01:56:30;;;;;;;;;37.75;29.00;;;;;6.55;80.87;102839.69;5017548;28;45526;-49
2022/01/17 01:58:55;;;;;;;;;41.00;35.50;;;;;6.57;80.20;102840.41;5017793;28;45554;-51
2022/01/17 02:01:21;;;;;;;;;42.50;34.75;;;;;6.54;79.95;102836.06;5001423;28;45478;-49
2022/01/17 02:03:46;;;;;;;;;37.25;31.75;;;;;6.54;80.48;102841.53;5035468;28;45404;-50
2022/01/17 02:06:12;;;;;;;;;33.75;25.50;;;;;6.30;80.08;102799.00;5035375;28;45742;-48
2022/01/17 02:08:37;;;;;;;;;42.50;33.25;;;;;6.49;80.37;102831.03;5034729;28;45294;-49
2022/01/17 02:11:03;;;;;;;;;45.00;33.25;;;;;6.45;80.38;102824.09;5017560;28;45418;-52
2022/01/17 02:13:28;;;;;;;;;41.75;36.00;;;;;6.55;80.15;102845.97;5001449;28;45217;-49
2022/01/17 02:16:04;;;;;;;;;31.50;30.75;;;;;6.12;80.33;102767.91;5034985;28;45524;-52
2022/01/17 02:18:30;;;;;;;;;38.00;30.60;;;;;6.57;79.87;102841.25;5035177;28;45358;-50
2022/01/17 02:21:31;;;;;;;;;41.00;31.20;;;;;6.57;80.44;102851.31;5000869;28;45399;-51
2022/01/17 02:23:51;;;;;;;;;34.40;30.40;;;;;6.55;80.24;102843.25;5034025;28;45602;-50
2022/01/17 02:26:18;;;;;;;;;38.00;31.00;;;;;6.50;80.85;102840.06;5017269;28;47046;-49
2022/01/17 02:28:50;;;;;;;;;42.60;36.00;;;;;6.46;80.84;102831.28;5016686;28;45437;-51
2022/01/17 02:31:16;;;;;;;;;44.20;38.80;;;;;6.46;80.84;102836.72;5016925;28;45389;-50
2022/01/17 02:33:42;;;;;;;;;43.75;31.25;;;;;6.49;80.71;102827.41;5034746;28;45584;-50
2022/01/17 02:36:07;;;;;;;;;35.50;29.75;;;;;6.43;81.55;102822.50;5034596;28;45791;-50
2022/01/17 02:38:33;;;;;;;;;37.50;31.00;;;;;6.46;81.44;102825.81;5034740;28;45782;-49
2022/01/17 02:40:58;;;;;;;;;46.50;39.75;;;;;6.41;80.92;102819.03;5037218;28;45498;-52
2022/01/17 02:43:26;;;;;;;;;34.25;30.00;;;;;6.45;81.29;102823.25;4987675;28;45625;-47
2022/01/17 02:48:17;;;;;;;;;37.50;35.00;;;;;6.39;81.23;102819.16;5020050;28;45433;-49
2022/01/17 02:50:42;;;;;;;;;42.00;39.00;;;;;6.37;82.04;102824.75;5020588;28;45332;-53
2022/01/17 02:53:09;;;;;;;;;41.00;32.50;;;;;6.36;82.20;102816.72;5003606;28;45493;-54
2022/01/17 02:55:34;;;;;;;;;41.80;32.60;;;;;6.37;82.03;102824.75;5019761;28;45870;-51
2022/01/17 02:58:00;;;;;;;;;42.00;34.50;;;;;6.27;82.00;102798.41;5037749;28;45307;-48
2022/01/17 03:00:26;;;;;;;;;34.25;31.50;;;;;6.41;81.26;102819.03;5037872;28;45694;-48
2022/01/17 03:02:51;;;;;;;;;41.75;34.00;;;;;6.43;81.44;102817.91;5012296;28;45657;-51
2022/01/17 03:05:17;;;;;;;;;39.25;37.75;;;;;6.45;81.61;102831.44;5036431;28;45614;-50
2022/01/17 03:07:43;;;;;;;;;52.00;41.50;;;;;6.49;81.27;102838.34;5000205;28;45372;-50
2022/01/17 03:10:18;;;;;;;;;43.40;36.00;;;;;6.49;81.37;102836.47;5002800;28;45843;-48
2022/01/17 03:12:43;;;;;;;;;42.80;32.60;;;;;6.49;81.39;102838.34;5020982;28;45561;-50
2022/01/17 03:15:09;;;;;;;;;31.25;29.25;;;;;6.37;81.40;102822.03;5037090;28;46824;-51
2022/01/17 03:17:35;;;;;;;;;41.60;29.80;;;;;6.28;81.70;102809.19;5034611;28;45445;-52
2022/01/17 03:20:00;;;;;;;;;44.75;38.00;;;;;6.50;81.61;102846.38;5018896;28;45426;-53
2022/01/17 03:22:26;;;;;;;;;41.25;33.75;;;;;6.52;81.49;102843.53;5014294;28;45680;-48
2022/01/17 03:24:51;;;;;;;;;38.25;33.00;;;;;6.51;81.59;102855.41;5036427;28;45777;-50
2022/01/17 03:27:18;;;;;;;;;39.25;37.50;;;;;6.55;81.49;102854.16;5036586;28;45810;-50
2022/01/17 03:29:44;;;;;;;;;36.00;29.20;;;;;6.37;81.60;102826.63;5020139;28;45308;-49
2022/01/17 03:32:09;;;;;;;;;40.75;34.50;;;;;6.53;81.20;102849.84;5019729;28;45538;-53
2022/01/17 03:34:36;;;;;;;;;39.00;34.00;;;;;6.54;81.00;102855.16;5019367;28;45679;-52
2022/01/17 03:37:02;;;;;;;;;45.20;36.20;;;;;6.44;81.24;102835.13;5020036;28;45354;-50
2022/01/17 03:39:27;;;;;;;;;44.75;37.25;;;;;6.58;80.83;102858.50;5003071;28;45348;-50
2022/01/17 03:41:53;;;;;;;;;33.75;33.25;;;;;6.58;80.95;102861.22;5037771;28;45351;-51
2022/01/17 03:44:18;;;;;;;;;36.00;31.50;;;;;6.54;81.50;102865.22;5037201;28;45812;-50
2022/01/17 03:46:44;;;;;;;;;40.25;31.50;;;;;6.56;81.56;102855.03;5019621;28;45404;-53
2022/01/17 03:49:09;;;;;;;;;34.25;30.50;;;;;6.60;80.96;102864.69;5037648;28;45403;-50
2022/01/17 03:51:35;;;;;;;;;36.25;31.25;;;;;6.15;81.12;102789.44;5036954;28;45889;-49
2022/01/17 03:54:00;;;;;;;;;41.00;34.50;;;;;6.66;81.09;102874.22;5019501;28;48026;-50
2022/01/17 03:56:26;;;;;;;;;38.00;32.75;;;;;6.67;80.38;102871.31;5036946;28;45346;-48
2022/01/17 03:58:51;;;;;;;;;34.25;28.00;;;;;6.67;80.77;102875.94;5037227;28;45428;-49
2022/01/17 04:01:18;;;;;;;;;43.00;33.50;;;;;6.56;80.11;102853.16;5036800;28;45531;-52
2022/01/17 04:03:46;;;;;;;;;33.60;29.40;;;;;6.68;80.72;102874.94;5019799;28;45650;-53
2022/01/17 04:06:14;;;;;;;;;39.40;35.00;;;;;6.70;80.71;102883.84;5036865;28;45258;-50
2022/01/17 04:08:40;;;;;;;;;35.20;31.40;;;;;6.71;80.42;102885.56;5036954;28;45361;-53
2022/01/17 04:11:05;;;;;;;;;40.25;32.00;;;;;6.74;80.39;102890.78;5032747;28;45440;-49
2022/01/17 04:13:32;;;;;;;;;36.75;31.25;;;;;6.64;80.15;102875.22;5030591;28;46801;-50
2022/01/17 04:15:58;;;;;;;;;34.80;31.60;;;;;6.57;80.13;102854.88;5020423;28;45428;-53
2022/01/17 04:18:24;;;;;;;;;31.00;26.00;;;;;6.53;79.67;102850.72;5036755;28;45194;-52
2022/01/17 04:20:50;;;;;;;;;35.20;27.00;;;;;6.76;79.26;102894.22;5019275;28;45604;-49
2022/01/17 04:23:15;;;;;;;;;34.50;26.00;;;;;6.74;79.07;102897.09;5035927;28;46713;-48
2022/01/17 04:25:42;;;;;;;;;31.25;29.00;;;;;6.71;79.06;102900.09;5018765;28;45433;-49
2022/01/17 04:28:08;;;;;;;;;30.20;26.60;;;;;6.50;79.12;102862.75;5037068;28;45301;-49
2022/01/17 04:30:33;;;;;;;;;36.00;28.75;;;;;6.58;78.60;102874.88;4985751;28;45414;-53
2022/01/17 04:32:59;;;;;;;;;27.00;24.25;;;;;6.77;78.96;102905.03;5036649;28;45631;-51
2022/01/17 04:35:25;;;;;;;;;31.00;24.50;;;;;6.73;77.85;102898.09;5018872;28;45453;-48
2022/01/17 04:37:53;;;;;;;;;24.80;21.40;;;;;6.75;77.64;102897.97;5018950;28;45458;-51
2022/01/17 04:40:19;;;;;;;;;25.20;24.00;;;;;6.76;78.27;102886.03;4986387;28;45577;-49
2022/01/17 04:42:47;;;;;;;;;27.25;19.25;;;;;6.78;77.51;102897.72;5018602;28;45395;-55
2022/01/17 04:45:15;;;;;;;;;27.40;24.80;;;;;6.76;77.53;102884.19;5036435;28;45324;-55
2022/01/17 04:47:43;;;;;;;;;29.00;19.00;;;;;6.59;77.12;102857.50;5002979;28;45306;-49
2022/01/17 04:50:11;;;;;;;;;22.00;20.60;;;;;6.59;76.72;102854.75;5002602;28;45356;-52
2022/01/17 04:52:37;;;;;;;;;17.80;15.60;;;;;6.61;76.90;102870.00;5035951;28;46733;-50
2022/01/17 04:55:04;;;;;;;;;20.00;16.00;;;;;6.77;76.39;102902.28;5018798;28;45946;-52
2022/01/17 04:57:29;;;;;;;;;20.80;18.40;;;;;6.57;75.67;102863.06;5036675;28;45446;-56
2022/01/17 04:59:55;;;;;;;;;16.00;15.75;;;;;6.76;76.33;102902.41;5001728;28;45574;-52
2022/01/17 05:02:20;;;;;;;;;18.75;15.75;;;;;6.78;75.88;102905.91;5001704;28;47246;-51
2022/01/17 05:04:46;;;;;;;;;29.50;20.50;;;;;6.59;76.40;102882.94;5017279;28;45459;-50
2022/01/17 05:07:12;;;;;;;;;18.20;16.40;;;;;6.77;75.98;102899.56;5036486;28;45569;-52
2022/01/17 05:09:39;;;;;;;;;22.25;18.00;;;;;6.81;75.36;102899.28;5036129;28;45772;-50
2022/01/17 05:12:06;;;;;;;;;22.00;17.80;;;;;6.78;76.06;102897.72;5013945;28;45413;-53
2022/01/17 05:14:31;;;;;;;;;21.20;18.20;;;;;6.79;76.29;102904.91;5015246;28;45406;-52
2022/01/17 05:17:04;;;;;;;;;24.00;19.75;;;;;6.63;76.19;102878.06;5034536;28;45496;-53
2022/01/17 05:22:20;;;;;;;;;26.40;20.00;;;;;6.81;75.94;102915.66;5020478;28;45764;-49
2022/01/17 05:24:46;;;;;;;;;26.20;17.60;;;;;6.80;76.47;102916.66;5014555;28;45779;-53
2022/01/17 05:27:12;;;;;;;;;16.50;16.50;;;;;6.79;75.73;102915.81;5031132;28;45355;-53
2022/01/17 05:29:37;;;;;;;;;24.25;17.25;;;;;6.78;76.25;102920.41;5031677;28;45625;-52
2022/01/17 05:32:03;;;;;;;;;22.75;20.25;;;;;6.81;75.72;102915.66;5014178;28;45441;-53
2022/01/17 05:34:29;;;;;;;;;17.50;13.50;;;;;6.82;75.71;102906.50;5031133;28;45331;-55
2022/01/17 05:36:54;;;;;;;;;21.00;18.00;;;;;6.85;75.78;102912.56;5014057;28;45463;-51
2022/01/17 05:39:20;;;;;;;;;21.25;18.00;;;;;6.83;75.49;102916.41;5016315;28;45577;-52
2022/01/17 05:41:45;;;;;;;;;23.25;22.00;;;;;6.77;76.23;102918.66;5014393;28;45572;-50
2022/01/17 05:44:11;;;;;;;;;26.75;18.50;;;;;6.83;75.92;102927.34;5014092;28;45390;-53
2022/01/17 05:46:36;;;;;;;;;31.50;25.00;;;;;6.59;76.43;102893.84;5015725;28;45219;-50
2022/01/17 05:49:02;;;;;;;;;33.75;27.25;;;;;6.59;76.53;102907.50;5015500;28;45239;-47
2022/01/17 05:51:27;;;;;;;;;33.50;27.25;;;;;6.61;76.71;102916.41;5015383;28;46444;-53
2022/01/17 05:53:53;;;;;;;;;31.00;26.00;;;;;6.59;76.57;102914.81;5015495;28;45318;-54
2022/01/17 05:56:18;;;;;;;;;28.75;24.00;;;;;6.68;76.88;102935.84;5015534;28;45287;-52
2022/01/17 05:58:44;;;;;;;;;26.00;26.00;;;;;6.68;76.83;102941.31;5015932;28;45519;-50
2022/01/17 06:01:10;;;;;;;;;28.50;26.75;;;;;6.72;76.83;102953.69;5015219;28;46969;-54
2022/01/17 06:03:36;;;;;;;;;29.40;27.00;;;;;6.55;76.91;102911.47;5014058;28;45374;-52
2022/01/17 06:06:03;;;;;;;;;46.25;30.50;;;;;6.59;77.07;102912.06;5014396;28;45494;-50
2022/01/17 06:08:29;;;;;;;;;31.20;28.20;;;;;6.72;77.45;102929.13;5015686;28;45564;-53
2022/01/17 06:10:55;;;;;;;;;39.50;31.50;;;;;6.74;77.09;102939.91;5013960;28;45809;-50
2022/01/17 06:13:20;;;;;;;;;30.75;29.00;;;;;6.52;77.67;102906.28;5013980;28;45355;-53
2022/01/17 06:15:46;;;;;;;;;36.75;30.25;;;;;6.68;77.79;102943.16;5016887;28;45332;-48
2022/01/17 06:18:11;;;;;;;;;31.75;27.25;;;;;6.64;77.29;102935.25;5018763;28;45410;-52
2022/01/17 06:20:37;;;;;;;;;23.00;14.25;;;;;6.46;77.82;102915.00;5017841;28;46932;-52
2022/01/17 06:23:02;;;;;;;;;32.00;29.75;;;;;6.57;77.95;102944.94;5018629;28;45270;-50
2022/01/17 06:25:28;;;;;;;;;36.75;26.75;;;;;6.55;77.78;102937.91;5036859;28;45398;-51
2022/01/17 06:27:53;;;;;;;;;30.25;23.50;;;;;6.50;78.07;102930.97;5038525;28;45328;-49
2022/01/17 06:30:19;;;;;;;;;33.25;25.75;;;;;6.53;77.57;102939.88;5020638;28;46724;-53
2022/01/17 06:32:44;;;;;;;;;34.00;26.00;;;;;6.47;77.97;102952.19;5038401;28;45452;-50
2022/01/17 06:35:10;;;;;;;;;33.25;25.25;;;;;6.44;78.24;102958.78;5038138;28;45759;-50
2022/01/17 06:37:38;;;;;;;;;31.20;27.20;;;;;6.39;78.09;102963.75;5020293;28;45358;-50
2022/01/17 06:40:04;;;;;;;;;29.80;26.20;;;;;6.43;77.76;102967.06;5021036;28;45387;-49
2022/01/17 06:42:30;;;;;;;;;36.00;28.00;;;;;6.40;77.81;102975.53;5019853;28;45320;-54
2022/01/17 06:44:55;;;;;;;;;29.00;25.75;;;;;6.14;78.00;102938.53;5038157;28;45284;-51
2022/01/17 06:47:21;;;;;;;;;35.75;29.00;;;;;6.36;78.09;102992.13;5020152;28;45386;-52
2022/01/17 06:49:46;;;;;;;;;30.00;28.50;;;;;6.30;78.41;102992.66;5038095;28;46211;-53
2022/01/17 06:52:12;;;;;;;;;39.00;29.75;;;;;6.15;78.19;102983.03;5019897;28;45336;-51
2022/01/17 06:54:37;;;;;;;;;36.50;32.50;;;;;6.33;78.55;103016.97;5037947;28;45410;-50
2022/01/17 06:57:03;;;;;;;;;28.50;25.75;;;;;6.34;78.51;103002.31;5038264;28;45262;-51
2022/01/17 06:59:29;;;;;;;;;32.25;29.00;;;;;6.36;77.69;102994.88;5037352;28;46857;-51
2022/01/17 07:01:54;;;;;;;;;33.50;27.25;;;;;6.34;77.99;102983.22;5019816;28;45797;-52
2022/01/17 07:04:20;;;;;;;;;34.25;25.75;;;;;6.33;77.67;102981.50;5036930;28;45405;-49
2022/01/17 07:06:45;;;;;;;;;30.00;25.25;;;;;6.26;78.20;102987.59;5034869;28;45848;-54
2022/01/17 07:09:16;;;;;;;;;30.25;28.25;;;;;6.05;78.27;102958.38;5019640;28;45435;-55
2022/01/17 07:11:43;;;;;;;;;26.20;24.20;;;;;6.30;78.41;102983.63;5020501;28;45398;-51
2022/01/17 07:14:09;;;;;;;;;31.60;25.20;;;;;6.10;77.77;102976.09;5037930;28;45326;-48
2022/01/17 07:16:38;;;;;;;;;40.80;34.00;;;;;6.34;77.53;103026.88;5003074;28;45480;-51
2022/01/17 07:19:04;;;;;;;;;29.00;26.60;;;;;6.18;77.64;103023.66;5037750;28;45644;-50
2022/01/17 07:21:29;;;;;;;;;25.75;22.75;;;;;6.18;78.08;103034.56;5003027;28;45501;-48
2022/01/17 07:23:55;;;;;;;;;26.00;21.00;;;;;6.36;77.86;103070.41;5012343;28;45388;-53
2022/01/17 07:26:20;;;;;;;;;28.75;23.00;;;;;6.32;78.20;103067.06;5012699;28;45273;-50
2022/01/17 07:28:46;;;;;;;;;32.75;26.75;;;;;6.34;77.67;103069.63;4997664;28;45415;-51
2022/01/17 07:31:11;;;;;;;;;31.25;28.75;;;;;6.15;77.39;103013.91;4997593;28;45347;-50
2022/01/17 07:33:38;;;;;;;;;34.75;30.50;;;;;6.26;77.40;103036.69;4997921;28;45292;-54
2022/01/17 07:36:06;;;;;;;;;36.80;31.60;;;;;6.25;77.92;103035.84;4996752;28;45385;-50
2022/01/17 07:38:32;;;;;;;;;32.00;28.40;;;;;6.20;77.97;103036.19;4997630;28;45466;-54
2022/01/17 07:40:57;;;;;;;;;36.75;28.25;;;;;6.17;77.69;103041.03;4996444;28;45494;-53
2022/01/17 07:43:23;;;;;;;;;36.25;28.50;;;;;6.19;78.72;103044.53;4998035;28;45345;-48
2022/01/17 07:51:27;;;;;;;;;29.40;29.40;;;;;6.15;77.96;103035.72;4997326;28;45470;-52
2022/01/17 07:53:54;;;;;;;;;39.40;31.00;;;;;6.16;77.72;103050.22;5012485;28;45384;-53
2022/01/17 07:56:19;;;;;;;;;41.00;33.20;;;;;6.09;78.06;103058.03;4996565;28;45304;-50
2022/01/17 07:58:45;;;;;;;;;48.00;33.00;;;;;6.04;78.06;103052.94;5012773;28;45355;-52
2022/01/17 08:01:11;;;;;;;;;44.25;36.00;;;;;6.02;78.90;103060.38;4990554;28;45441;-52
2022/01/17 08:03:36;;;;;;;;;43.75;35.25;;;;;5.91;78.86;103035.81;5006295;28;45395;-51
2022/01/17 08:06:02;;;;;;;;;45.50;38.00;;;;;6.10;78.09;103062.50;4997416;28;45214;-50
2022/01/17 08:08:27;;;;;;;;;49.00;38.50;;;;;5.89;78.65;103025.06;4997317;28;46375;-54
2022/01/17 08:10:53;;;;;;;;;30.00;27.00;;;;;6.08;78.06;103059.88;5012474;28;45218;-51
2022/01/17 08:13:18;;;;;;;;;39.00;34.00;;;;;6.07;77.84;103058.16;5012388;28;45366;-50
2022/01/17 08:15:47;;;;;;;;;45.25;34.25;;;;;5.93;78.76;103037.44;5012805;28;45204;-50
2022/01/17 08:18:13;;;;;;;;;38.80;34.60;;;;;5.89;77.78;103025.06;5011921;28;46807;-50
2022/01/17 08:20:39;;;;;;;;;39.60;32.80;;;;;5.92;78.44;103034.84;4997021;28;45448;-53
2022/01/17 08:23:04;;;;;;;;;45.00;38.50;;;;;6.11;77.43;103069.69;5011940;28;45411;-52
2022/01/17 08:25:30;;;;;;;;;45.75;39.00;;;;;6.16;77.79;103085.66;5016978;28;45644;-53
2022/01/17 08:27:56;;;;;;;;;38.00;33.00;;;;;6.04;78.41;103068.44;5036063;28;46455;-54
2022/01/17 08:30:21;;;;;;;;;44.00;36.75;;;;;6.09;78.46;103069.78;5018307;28;45340;-51
2022/01/17 08:32:47;;;;;;;;;42.75;38.00;;;;;6.00;78.37;103037.81;5018563;28;45389;-54
2022/01/17 08:35:12;;;;;;;;;48.00;38.75;;;;;6.01;78.64;103036.81;5036021;28;45364;-51
2022/01/17 08:37:38;;;;;;;;;43.00;36.25;;;;;6.21;77.66;103078.84;5018158;28;46804;-53
2022/01/17 08:40:05;;;;;;;;;40.00;35.50;;;;;6.07;77.72;103058.16;5018429;28;45482;-55
2022/01/17 08:42:30;;;;;;;;;44.20;33.60;;;;;6.25;78.14;103082.19;5018392;28;45488;-52
2022/01/17 08:44:56;;;;;;;;;45.00;34.00;;;;;6.22;77.61;103082.44;5002201;28;45596;-52
2022/01/17 08:47:21;;;;;;;;;41.50;34.50;;;;;6.23;78.15;103073.25;5017925;28;46396;-49
2022/01/17 08:49:48;;;;;;;;;40.75;36.50;;;;;6.33;76.97;103087.88;5018258;28;45461;-50
2022/01/17 08:52:15;;;;;;;;;56.20;39.20;;;;;6.35;77.11;103101.41;5035665;28;45409;-51
2022/01/17 08:54:44;;;;;;;;;47.60;37.80;;;;;6.25;77.82;103084.94;5036552;28;45394;-51
2022/01/17 08:57:09;;;;;;;;;40.00;36.80;;;;;6.07;77.97;103057.28;5001383;28;48121;-51
2022/01/17 08:59:35;;;;;;;;;32.25;29.50;;;;;6.20;77.91;103078.97;5018225;28;45435;-51
2022/01/17 09:02:00;;;;;;;;;43.00;33.75;;;;;6.27;77.40;103101.13;5006526;28;45390;-51
2022/01/17 09:04:26;;;;;;;;;43.25;38.00;;;;;6.09;78.22;103066.22;5034866;28;45603;-53
2022/01/17 09:06:51;;;;;;;;;42.50;38.25;;;;;6.38;77.91;103103.88;5033430;28;46239;-54
2022/01/17 09:09:17;;;;;;;;;46.00;33.75;;;;;6.44;77.54;103105.22;5035662;28;45394;-53
2022/01/17 09:11:43;;;;;;;;;41.25;35.25;;;;;6.50;77.13;103105.59;5018092;28;45512;-53
2022/01/17 09:14:09;;;;;;;;;42.40;37.20;;;;;6.54;76.37;103111.66;5017575;28;45474;-54
2022/01/17 09:16:34;;;;;;;;;43.25;38.50;;;;;6.57;76.89;103105.09;5017123;28;46609;-55
2022/01/17 09:19:01;;;;;;;;;49.75;37.25;;;;;6.67;77.05;103116.94;5035870;28;45722;-49
2022/01/17 09:21:27;;;;;;;;;41.00;32.80;;;;;6.51;76.33;103090.06;5035582;28;45274;-50
2022/01/17 09:23:54;;;;;;;;;42.50;36.50;;;;;6.77;76.49;103136.16;5017567;28;45607;-52
2022/01/17 09:26:23;;;;;;;;;39.00;34.80;;;;;6.82;76.55;103141.25;5035825;28;46521;-53
2022/01/17 09:28:49;;;;;;;;;54.40;39.00;;;;;6.80;76.31;103133.19;5018059;28;45433;-55
2022/01/17 09:31:15;;;;;;;;;43.25;31.50;;;;;6.93;76.24;103164.94;5013547;28;45310;-49
2022/01/17 09:33:41;;;;;;;;;38.80;34.00;;;;;6.85;75.79;103150.06;5020487;28;45374;-49
2022/01/17 09:36:06;;;;;;;;;45.50;40.25;;;;;6.95;76.01;103174.72;5002232;28;46161;-49
2022/01/17 09:38:32;;;;;;;;;51.75;40.00;;;;;6.94;76.04;103167.50;4996716;28;45391;-52
2022/01/17 09:40:57;;;;;;;;;43.25;38.75;;;;;7.02;76.55;103178.69;4997953;28;45393;-51
2022/01/17 09:43:23;;;;;;;;;47.00;38.75;;;;;7.02;75.99;103175.94;5023619;28;45460;-52
2022/01/17 09:45:48;;;;;;;;;37.50;35.50;;;;;6.95;75.71;103161.09;5017386;28;46850;-52
2022/01/17 09:48:19;;;;;;;;;44.50;35.75;;;;;6.94;75.79;103153.00;5035119;28;45353;-52
2022/01/17 09:50:57;;;;;;;;;51.20;39.00;;;;;7.06;75.30;103151.97;5018024;28;45912;-51
2022/01/17 09:53:22;;;;;;;;;41.60;35.00;;;;;7.01;75.54;103129.66;5004798;28;45223;-51
2022/01/17 09:55:48;;;;;;;;;36.25;32.75;;;;;7.16;74.41;103165.72;5000774;28;45597;-51
2022/01/17 09:58:14;;;;;;;;;39.75;36.25;;;;;7.17;74.40;103164.72;5035222;28;45443;-51
2022/01/17 10:00:41;;;;;;;;;44.50;35.00;;;;;7.22;74.71;103178.00;5035525;28;45137;-52
2022/01/17 10:03:07;;;;;;;;;39.60;34.20;;;;;7.09;74.87;103145.41;5017690;28;45487;-51
2022/01/17 10:05:34;;;;;;;;;37.40;30.00;;;;;7.21;74.10;103173.53;5001121;28;46958;-50
2022/01/17 10:08:04;;;;;;;;;33.80;31.80;;;;;7.21;73.95;103179.00;4971732;28;45944;-53
2022/01/17 10:10:38;;;;;;;;;36.20;30.00;;;;;7.36;74.09;103201.41;5017982;28;45488;-49
2022/01/17 10:13:17;;;;;;;;;39.20;35.00;;;;;7.16;74.00;103173.91;5035509;28;45603;-54
2022/01/17 10:15:58;;;;;;;;;41.40;31.00;;;;;7.16;74.68;103161.13;5001456;28;45919;-51
2022/01/17 10:18:46;;;;;;;;;43.20;34.80;;;;;7.43;73.99;103198.00;5017863;28;45439;-53
2022/01/17 10:21:20;;;;;;;;;38.80;30.00;;;;;7.21;73.56;103177.13;5030161;28;45483;-48
2022/01/17 10:37:22;;;;;;;;;41.40;33.80;;;;;7.37;73.46;103173.09;5019236;28;45889;-54
2022/01/17 10:40:12;;;;;;;;;42.00;35.60;;;;;7.46;74.00;103203.22;5001110;28;45375;-55
2022/01/17 10:42:42;;;;;;;;;50.20;35.60;;;;;7.46;73.52;103211.44;5034823;28;45267;-51
2022/01/17 10:45:15;;;;;;;;;39.00;32.80;;;;;7.42;74.01;103212.69;4984685;28;45552;-52
2022/01/17 10:47:43;;;;;;;;;33.40;30.20;;;;;7.42;73.65;103212.69;5017460;28;45759;-52
2022/01/17 10:50:23;;;;;;;;;36.40;32.80;;;;;7.23;73.86;103179.72;5000471;28;45453;-53
2022/01/17 10:52:50;;;;;;;;;39.80;34.20;;;;;7.28;73.77;103189.28;5017174;28;45671;-55
2022/01/17 10:55:18;;;;;;;;;37.80;30.60;;;;;7.28;73.45;103191.13;5034608;28;45542;-52
2022/01/17 10:57:46;;;;;;;;;43.40;38.40;;;;;7.18;73.71;103171.91;5017095;28;46271;-53
2022/01/17 11:00:17;;;;;;;;;39.60;31.40;;;;;6.84;74.38;103115.53;4999853;28;45739;-52
2022/01/17 11:02:48;;;;;;;;;49.40;36.40;;;;;7.33;74.30;103175.22;5018802;28;45458;-53
2022/01/17 11:05:14;;;;;;;;;31.00;25.00;;;;;7.13;73.98;103133.19;4987034;28;45328;-50
2022/01/17 11:07:43;;;;;;;;;41.20;31.40;;;;;7.36;74.23;103164.00;4997597;28;46729;-50
2022/01/17 11:10:17;;;;;;;;;41.80;37.40;;;;;7.52;74.41;103162.72;5031452;28;45330;-55
2022/01/17 11:12:42;;;;;;;;;43.80;35.20;;;;;7.77;73.14;103146.91;5033394;28;45938;-54
2022/01/17 11:15:10;;;;;;;;;48.75;39.00;;;;;7.97;73.51;103156.09;4930136;28;45903;-54
2022/01/17 11:17:46;;;;;;;;;45.60;37.80;;;;;8.02;72.37;103125.59;5015104;28;45401;-53
2022/01/17 11:20:12;;;;;;;;;47.60;34.20;;;;;8.34;71.96;103146.47;5015986;28;45521;-54
2022/01/17 11:22:42;;;;;;;;;38.60;34.00;;;;;8.32;71.14;103119.25;5011938;28;45601;-52
2022/01/17 11:25:19;;;;;;;;;45.20;35.40;;;;;8.60;71.12;103151.50;5014838;28;45660;-59
2022/01/17 11:27:45;;;;;;;;;41.80;32.20;;;;;8.67;70.44;103163.63;5014833;28;46286;-55
2022/01/17 11:30:11;;;;;;;;;34.40;27.80;;;;;8.63;70.71;103151.22;5014768;28;45454;-59
2022/01/17 11:32:36;;;;;;;;;37.75;31.00;;;;;8.60;71.02;103157.81;5015440;28;45502;-51
2022/01/17 11:35:02;;;;;;;;;39.00;35.00;;;;;8.46;70.99;103147.25;5013662;28;45754;-52
2022/01/17 11:37:32;;;;;;;;;40.00;33.60;;;;;8.35;71.40;103146.34;5040419;28;46358;-56
2022/01/17 11:39:57;;;;;;;;;39.40;32.40;;;;;8.19;71.87;103135.91;5031615;28;45599;-52
2022/01/17 11:42:45;;;;;;;;;43.75;35.00;;;;;8.21;71.53;103141.25;5032597;28;45468;-54
2022/01/17 11:45:23;;;;;;;;;34.20;30.40;;;;;8.17;72.01;103146.09;5013310;28;45701;-54
2022/01/17 11:47:59;;;;;;;;;45.60;36.60;;;;;8.13;72.58;103148.25;5032722;28;45845;-51
2022/01/17 11:50:27;;;;;;;;;46.40;40.20;;;;;8.14;72.65;103147.28;5015470;28;45716;-55